Time,TemperatureF,DewpointF,PressureIn,WindDirection,WindDirectionDegrees,WindSpeedMPH,WindSpeedGustMPH,Humidity,HourlyPrecipIn,Conditions,Clouds,dailyrainin,SoftwareType,DateUTC
2013-01-19 00:03:00,33.8,25.0,30.16,ESE,113,0.4,0.9,70,0.00,,,0.00,WUHU216HW,2013-01-19 08:03:00,
2013-01-19 00:08:00,33.5,24.7,30.16,ESE,113,0.0,0.4,70,0.00,,,0.00,WUHU216HW,2013-01-19 08:08:00,
2013-01-19 00:13:00,33.5,24.7,30.16,ESE,113,0.0,0.7,70,0.00,,,0.00,WUHU216HW,2013-01-19 08:13:00,
2013-01-19 00:18:00,33.3,24.8,30.16,East,90,0.4,1.1,71,0.00,,,0.00,WUHU216HW,2013-01-19 08:18:00,
2013-01-19 00:23:00,33.3,24.8,30.16,ENE,68,0.4,1.1,71,0.00,,,0.00,WUHU216HW,2013-01-19 08:23:00,
2013-01-19 00:28:00,33.3,24.8,30.16,ENE,68,0.2,1.1,71,0.00,,,0.00,WUHU216HW,2013-01-19 08:28:00,
2013-01-19 00:33:00,33.1,24.7,30.16,ENE,68,0.7,0.7,71,0.00,,,0.00,WUHU216HW,2013-01-19 08:33:00,
2013-01-19 00:38:00,33.1,25.0,30.16,ENE,68,0.7,0.7,72,0.00,,,0.00,WUHU216HW,2013-01-19 08:38:00,
2013-01-19 00:43:00,33.1,25.0,30.16,NNE,23,0.7,1.1,72,0.00,,,0.00,WUHU216HW,2013-01-19 08:43:00,
2013-01-19 00:48:00,33.1,25.0,30.16,NE,45,0.4,1.1,72,0.00,,,0.00,WUHU216HW,2013-01-19 08:48:00,
2013-01-19 00:53:00,32.9,24.8,30.16,ENE,68,0.7,0.7,72,0.00,,,0.00,WUHU216HW,2013-01-19 08:53:00,
2013-01-19 00:58:00,32.9,24.8,30.16,ENE,68,0.9,1.1,72,0.00,,,0.00,WUHU216HW,2013-01-19 08:58:00,
2013-01-19 01:03:00,32.8,24.7,30.16,ENE,68,0.4,1.1,72,0.00,,,0.00,WUHU216HW,2013-01-19 09:03:00,
2013-01-19 01:08:00,32.8,24.7,30.16,East,90,0.0,0.7,72,0.00,,,0.00,WUHU216HW,2013-01-19 09:08:00,
2013-01-19 01:13:00,32.6,24.6,30.16,ESE,113,1.1,1.6,72,0.00,,,0.00,WUHU216HW,2013-01-19 09:13:00,
2013-01-19 01:18:00,32.4,24.4,30.16,ESE,113,1.8,2.0,72,0.00,,,0.00,WUHU216HW,2013-01-19 09:18:00,
2013-01-19 01:23:00,32.4,24.7,30.16,ENE,68,1.3,2.0,73,0.00,,,0.00,WUHU216HW,2013-01-19 09:23:00,
2013-01-19 01:28:00,32.2,24.6,30.16,East,90,1.1,2.0,73,0.00,,,0.00,WUHU216HW,2013-01-19 09:28:00,
2013-01-19 01:33:00,32.4,24.7,30.16,ESE,113,2.0,2.5,73,0.00,,,0.00,WUHU216HW,2013-01-19 09:33:00,
2013-01-19 01:38:00,32.2,24.8,30.16,East,90,1.1,2.5,74,0.00,,,0.00,WUHU216HW,2013-01-19 09:38:00,
2013-01-19 01:43:00,32.2,24.8,30.16,East,90,1.1,1.6,74,0.00,,,0.00,WUHU216HW,2013-01-19 09:43:00,
2013-01-19 01:48:00,32.2,24.8,30.17,ENE,68,1.1,1.3,74,0.00,,,0.00,WUHU216HW,2013-01-19 09:48:00,
2013-01-19 01:53:00,32.4,25.0,30.17,ENE,68,0.2,1.3,74,0.00,,,0.00,WUHU216HW,2013-01-19 09:53:00,
2013-01-19 01:58:00,32.2,24.6,30.16,East,90,0.9,1.1,73,0.00,,,0.00,WUHU216HW,2013-01-19 09:58:00,
2013-01-19 02:03:00,32.0,24.4,30.17,ENE,68,0.9,0.9,73,0.00,,,0.00,WUHU216HW,2013-01-19 10:03:00,
2013-01-19 02:08:00,32.0,24.4,30.17,ENE,68,0.0,0.9,73,0.00,,,0.00,WUHU216HW,2013-01-19 10:08:00,
2013-01-19 02:13:00,31.9,24.2,30.17,ENE,68,0.2,0.7,73,0.00,,,0.00,WUHU216HW,2013-01-19 10:13:00,
2013-01-19 02:18:00,31.5,23.9,30.17,ESE,113,1.1,1.1,73,0.00,,,0.00,WUHU216HW,2013-01-19 10:18:00,
2013-01-19 02:23:00,31.3,23.9,30.17,ESE,113,1.1,1.3,74,0.00,,,0.00,WUHU216HW,2013-01-19 10:23:00,
2013-01-19 02:28:00,31.3,23.9,30.17,East,90,1.1,2.0,74,0.00,,,0.00,WUHU216HW,2013-01-19 10:28:00,
2013-01-19 02:33:00,31.1,23.8,30.17,East,90,0.0,2.0,74,0.00,,,0.00,WUHU216HW,2013-01-19 10:33:00,
2013-01-19 02:38:00,31.1,23.8,30.17,ESE,113,0.0,1.1,74,0.00,,,0.00,WUHU216HW,2013-01-19 10:38:00,
2013-01-19 02:43:00,31.1,23.8,30.17,ESE,113,0.0,0.4,74,0.00,,,0.00,WUHU216HW,2013-01-19 10:43:00,
2013-01-19 02:48:00,31.0,23.6,30.17,ESE,113,0.0,0.4,74,0.00,,,0.00,WUHU216HW,2013-01-19 10:48:00,
2013-01-19 02:53:00,30.8,23.4,30.17,SE,135,1.1,1.1,74,0.00,,,0.00,WUHU216HW,2013-01-19 10:53:00,
2013-01-19 02:58:00,30.6,23.2,30.17,ESE,113,0.7,1.1,74,0.00,,,0.00,WUHU216HW,2013-01-19 10:58:00,
2013-01-19 03:03:00,30.4,23.0,30.17,SE,135,0.7,1.1,74,0.00,,,0.00,WUHU216HW,2013-01-19 11:03:00,
2013-01-19 03:08:00,30.2,22.9,30.17,SE,135,0.0,0.9,74,0.00,,,0.00,WUHU216HW,2013-01-19 11:08:00,
2013-01-19 03:13:00,30.2,22.9,30.17,SE,135,0.0,0.7,74,0.00,,,0.00,WUHU216HW,2013-01-19 11:13:00,
2013-01-19 03:14:00,30.2,22.9,30.17,SE,135,0.0,0.4,74,0.00,,,0.00,WUHU216HW,2013-01-19 11:14:00,
2013-01-19 03:20:00,30.1,22.8,30.17,SE,135,0.0,0.2,74,0.00,,,0.00,WUHU216HW,2013-01-19 11:20:00,
2013-01-19 03:26:00,29.9,22.6,30.17,SE,135,0.4,1.1,74,0.00,,,0.00,WUHU216HW,2013-01-19 11:26:00,
2013-01-19 03:32:00,29.9,22.9,30.17,SE,135,0.0,1.1,75,0.00,,,0.00,WUHU216HW,2013-01-19 11:32:00,
2013-01-19 03:38:00,29.9,22.9,30.18,SE,135,0.0,1.3,75,0.00,,,0.00,WUHU216HW,2013-01-19 11:38:00,
2013-01-19 03:50:00,29.7,22.7,30.18,ESE,113,1.1,1.1,75,0.00,,,0.00,WUHU216HW,2013-01-19 11:50:00,
2013-01-19 03:56:00,29.5,22.5,30.17,ESE,113,2.0,2.0,75,0.00,,,0.00,WUHU216HW,2013-01-19 11:56:00,
2013-01-19 04:02:00,29.3,22.4,30.17,ESE,113,1.3,2.0,75,0.00,,,0.00,WUHU216HW,2013-01-19 12:02:00,
2013-01-19 04:08:00,29.3,22.4,30.17,ESE,113,0.7,1.6,75,0.00,,,0.00,WUHU216HW,2013-01-19 12:08:00,
2013-01-19 04:14:00,29.3,22.7,30.17,East,90,0.7,1.1,76,0.00,,,0.00,WUHU216HW,2013-01-19 12:14:00,
2013-01-19 04:20:00,29.3,22.4,30.17,East,90,0.7,0.9,75,0.00,,,0.00,WUHU216HW,2013-01-19 12:20:00,
2013-01-19 04:48:00,29.5,22.5,30.18,East,90,1.3,1.8,75,0.00,,,0.00,WUHU216HW,2013-01-19 12:48:00,
2013-01-19 04:53:00,29.5,22.9,30.18,East,90,1.1,1.8,76,0.00,,,0.00,WUHU216HW,2013-01-19 12:53:00,
2013-01-19 04:58:00,29.7,23.1,30.18,East,90,0.4,1.8,76,0.00,,,0.00,WUHU216HW,2013-01-19 12:58:00,
2013-01-19 05:03:00,29.7,23.1,30.18,East,90,0.4,1.8,76,0.00,,,0.00,WUHU216HW,2013-01-19 13:03:00,
2013-01-19 05:08:00,29.7,23.1,30.18,ESE,113,0.7,1.8,76,0.00,,,0.00,WUHU216HW,2013-01-19 13:08:00,
2013-01-19 05:13:00,29.7,23.1,30.18,ESE,113,1.1,1.8,76,0.00,,,0.00,WUHU216HW,2013-01-19 13:13:00,
2013-01-19 05:18:00,29.7,22.7,30.18,ESE,113,3.1,3.1,75,0.00,,,0.00,WUHU216HW,2013-01-19 13:18:00,
2013-01-19 05:23:00,29.5,22.5,30.18,SE,135,1.6,3.1,75,0.00,,,0.00,WUHU216HW,2013-01-19 13:23:00,
2013-01-19 05:28:00,29.5,22.5,30.18,SSE,158,1.3,2.2,75,0.00,,,0.00,WUHU216HW,2013-01-19 13:28:00,
2013-01-19 05:33:00,29.5,22.9,30.18,South,180,0.9,2.7,76,0.00,,,0.00,WUHU216HW,2013-01-19 13:33:00,
2013-01-19 05:38:00,29.7,23.1,30.19,SSW,203,1.3,2.7,76,0.00,,,0.00,WUHU216HW,2013-01-19 13:38:00,
2013-01-19 05:43:00,29.9,23.2,30.19,SSE,158,0.0,1.3,76,0.00,,,0.00,WUHU216HW,2013-01-19 13:43:00,
2013-01-19 05:48:00,29.9,23.2,30.19,ESE,113,1.1,1.1,76,0.00,,,0.00,WUHU216HW,2013-01-19 13:48:00,
2013-01-19 05:53:00,29.9,22.9,30.19,ESE,113,0.4,1.1,75,0.00,,,0.00,WUHU216HW,2013-01-19 13:53:00,
2013-01-19 05:58:00,29.9,22.9,30.19,ESE,113,0.0,0.7,75,0.00,,,0.00,WUHU216HW,2013-01-19 13:58:00,
2013-01-19 06:03:00,29.7,22.7,30.19,North,0,0.7,1.1,75,0.00,,,0.00,WUHU216HW,2013-01-19 14:03:00,
2013-01-19 06:08:00,29.7,22.7,30.19,NNW,338,0.0,1.1,75,0.00,,,0.00,WUHU216HW,2013-01-19 14:08:00,
2013-01-19 06:13:00,29.5,22.5,30.19,West,270,0.0,0.7,75,0.00,,,0.00,WUHU216HW,2013-01-19 14:13:00,
2013-01-19 06:18:00,29.3,22.4,30.19,SSE,158,0.0,0.9,75,0.00,,,0.00,WUHU216HW,2013-01-19 14:18:00,
2013-01-19 06:23:00,29.2,22.2,30.19,West,270,0.4,0.9,75,0.00,,,0.00,WUHU216HW,2013-01-19 14:23:00,
2013-01-19 06:28:00,29.2,22.2,30.20,West,270,1.6,1.6,75,0.00,,,0.00,WUHU216HW,2013-01-19 14:28:00,
2013-01-19 06:33:00,29.2,22.2,30.20,WSW,248,0.7,1.6,75,0.00,,,0.00,WUHU216HW,2013-01-19 14:33:00,
2013-01-19 06:38:00,29.2,22.2,30.20,West,270,0.7,1.6,75,0.00,,,0.00,WUHU216HW,2013-01-19 14:38:00,
2013-01-19 06:43:00,29.0,22.1,30.20,West,270,0.0,1.1,75,0.00,,,0.00,WUHU216HW,2013-01-19 14:43:00,
2013-01-19 06:48:00,28.8,21.9,30.20,SW,225,1.8,1.8,75,0.00,,,0.00,WUHU216HW,2013-01-19 14:48:00,
2013-01-19 06:53:00,28.6,21.7,30.20,SSW,203,1.3,1.8,75,0.00,,,0.00,WUHU216HW,2013-01-19 14:53:00,
2013-01-19 06:58:00,28.4,21.5,30.20,South,180,2.2,2.2,75,0.00,,,0.00,WUHU216HW,2013-01-19 14:58:00,
2013-01-19 07:03:00,28.4,21.5,30.20,SSE,158,0.2,2.2,75,0.00,,,0.00,WUHU216HW,2013-01-19 15:03:00,
2013-01-19 07:08:00,28.4,21.5,30.20,SSE,158,0.4,1.8,75,0.00,,,0.00,WUHU216HW,2013-01-19 15:08:00,
2013-01-19 07:13:00,28.4,21.8,30.21,SSE,158,0.0,1.6,76,0.00,,,0.00,WUHU216HW,2013-01-19 15:13:00,
2013-01-19 07:18:00,28.4,21.8,30.21,SSE,158,0.0,1.1,76,0.00,,,0.00,WUHU216HW,2013-01-19 15:18:00,
2013-01-19 07:23:00,28.3,21.6,30.21,ESE,113,0.0,0.7,76,0.00,,,0.00,WUHU216HW,2013-01-19 15:23:00,
2013-01-19 07:28:00,28.3,22.0,30.21,ESE,113,0.0,0.7,77,0.00,,,0.00,WUHU216HW,2013-01-19 15:28:00,
2013-01-19 07:33:00,28.3,22.0,30.21,East,90,0.7,0.7,77,0.00,,,0.00,WUHU216HW,2013-01-19 15:33:00,
2013-01-19 07:38:00,28.3,22.0,30.21,ESE,113,1.1,1.1,77,0.00,,,0.00,WUHU216HW,2013-01-19 15:38:00,
2013-01-19 07:43:00,28.3,22.0,30.21,SE,135,0.0,1.1,77,0.00,,,0.00,WUHU216HW,2013-01-19 15:43:00,
2013-01-19 07:48:00,28.3,22.0,30.21,SE,135,1.3,1.3,77,0.00,,,0.00,WUHU216HW,2013-01-19 15:48:00,
2013-01-19 07:53:00,28.4,22.2,30.21,SSE,158,0.0,1.3,77,0.00,,,0.00,WUHU216HW,2013-01-19 15:53:00,
2013-01-19 07:58:00,28.4,22.2,30.21,SSE,158,0.0,0.4,77,0.00,,,0.00,WUHU216HW,2013-01-19 15:58:00,
2013-01-19 08:03:00,28.8,22.5,30.21,South,180,0.4,1.3,77,0.00,,,0.00,WUHU216HW,2013-01-19 16:03:00,
2013-01-19 08:08:00,29.2,22.9,30.21,SW,225,0.0,1.3,77,0.00,,,0.00,WUHU216HW,2013-01-19 16:08:00,
2013-01-19 08:13:00,29.5,23.5,30.21,SW,225,0.0,1.3,78,0.00,,,0.00,WUHU216HW,2013-01-19 16:13:00,
2013-01-19 08:18:00,29.9,23.9,30.21,SW,225,0.7,1.3,78,0.00,,,0.00,WUHU216HW,2013-01-19 16:18:00,
2013-01-19 08:23:00,30.6,24.8,30.21,WSW,248,0.0,1.1,79,0.00,,,0.00,WUHU216HW,2013-01-19 16:23:00,
2013-01-19 08:28:00,31.0,25.2,30.22,SW,225,0.0,0.4,79,0.00,,,0.00,WUHU216HW,2013-01-19 16:28:00,
2013-01-19 08:33:00,31.7,25.9,30.22,SW,225,0.0,0.4,79,0.00,,,0.00,WUHU216HW,2013-01-19 16:33:00,
2013-01-19 08:38:00,32.2,26.8,30.21,SW,225,1.1,1.1,80,0.00,,,0.00,WUHU216HW,2013-01-19 16:38:00,
2013-01-19 08:43:00,32.9,27.5,30.22,SSW,203,0.4,1.1,80,0.00,,,0.00,WUHU216HW,2013-01-19 16:43:00,
2013-01-19 08:48:00,33.8,28.3,30.22,West,270,0.0,0.9,80,0.00,,,0.00,WUHU216HW,2013-01-19 16:48:00,
2013-01-19 08:53:00,34.6,29.3,30.22,NE,45,1.8,1.8,81,0.00,,,0.00,WUHU216HW,2013-01-19 16:53:00,
2013-01-19 08:58:00,35.8,31.4,30.22,NE,45,3.6,3.6,84,0.00,,,0.00,WUHU216HW,2013-01-19 16:58:00,
2013-01-19 09:03:00,37.8,33.9,30.22,NE,45,5.4,5.4,86,0.00,,,0.00,WUHU216HW,2013-01-19 17:03:00,
2013-01-19 09:09:00,41.4,35.6,30.22,North,0,8.3,8.3,80,0.00,,,0.00,WUHU216HW,2013-01-19 17:09:00,
2013-01-19 09:14:00,44.3,36.5,30.22,NE,45,8.5,8.5,74,0.00,,,0.00,WUHU216HW,2013-01-19 17:14:00,
2013-01-19 09:19:00,45.4,37.2,30.23,North,0,5.1,8.7,73,0.00,,,0.00,WUHU216HW,2013-01-19 17:19:00,
2013-01-19 09:24:00,46.4,37.3,30.23,North,0,4.3,8.7,70,0.00,,,0.00,WUHU216HW,2013-01-19 17:24:00,
2013-01-19 09:29:00,47.3,37.7,30.23,North,0,4.7,6.5,69,0.00,,,0.00,WUHU216HW,2013-01-19 17:29:00,
2013-01-19 09:34:00,47.9,37.8,30.23,NNE,23,6.9,6.9,68,0.00,,,0.00,WUHU216HW,2013-01-19 17:34:00,
2013-01-19 09:39:00,48.6,37.7,30.23,North,0,3.8,8.1,66,0.00,,,0.00,WUHU216HW,2013-01-19 17:39:00,
2013-01-19 09:44:00,49.1,37.4,30.23,NE,45,8.9,8.9,64,0.00,,,0.00,WUHU216HW,2013-01-19 17:44:00,
2013-01-19 09:49:00,49.9,38.2,30.23,NNE,23,10.3,10.5,64,0.00,,,0.00,WUHU216HW,2013-01-19 17:49:00,
2013-01-19 09:54:00,50.6,38.4,30.23,North,0,6.9,11.9,63,0.00,,,0.00,WUHU216HW,2013-01-19 17:54:00,
2013-01-19 09:59:00,50.9,38.7,30.24,NE,45,6.5,11.9,63,0.00,,,0.00,WUHU216HW,2013-01-19 17:59:00,
2013-01-19 10:04:00,51.1,38.5,30.24,North,0,9.2,9.6,62,0.00,,,0.00,WUHU216HW,2013-01-19 18:04:00,
2013-01-19 10:09:00,51.7,38.6,30.24,NE,45,6.0,9.2,61,0.00,,,0.00,WUHU216HW,2013-01-19 18:09:00,
2013-01-19 10:14:00,52.0,38.5,30.23,NE,45,11.4,11.4,60,0.00,,,0.00,WUHU216HW,2013-01-19 18:14:00,
2013-01-19 10:20:00,52.2,39.2,30.23,NE,45,9.6,11.4,61,0.00,,,0.00,WUHU216HW,2013-01-19 18:20:00,
2013-01-19 10:25:00,52.4,38.9,30.23,NE,45,9.8,9.8,60,0.00,,,0.00,WUHU216HW,2013-01-19 18:25:00,
2013-01-19 10:30:00,52.7,39.2,30.23,North,0,9.2,10.1,60,0.00,,,0.00,WUHU216HW,2013-01-19 18:30:00,
2013-01-19 10:35:00,53.3,38.9,30.23,NNE,23,6.5,9.2,58,0.00,,,0.00,WUHU216HW,2013-01-19 18:35:00,
2013-01-19 10:40:00,53.6,39.3,30.22,NNE,23,12.5,13.2,58,0.00,,,0.00,WUHU216HW,2013-01-19 18:40:00,
2013-01-19 10:45:00,53.8,39.3,30.22,North,0,12.1,13.2,58,0.00,,,0.00,WUHU216HW,2013-01-19 18:45:00,
2013-01-19 10:50:00,54.2,39.3,30.22,NNE,23,12.3,12.3,57,0.00,,,0.00,WUHU216HW,2013-01-19 18:50:00,
2013-01-19 10:56:00,54.2,39.7,30.22,NE,45,6.3,12.3,58,0.00,,,0.00,WUHU216HW,2013-01-19 18:56:00,
2013-01-19 11:01:00,54.5,39.5,30.22,North,0,11.9,11.9,57,0.00,,,0.00,WUHU216HW,2013-01-19 19:01:00,
2013-01-19 11:06:00,54.7,39.7,30.22,ENE,68,10.1,12.8,57,0.00,,,0.00,WUHU216HW,2013-01-19 19:06:00,
2013-01-19 11:11:00,54.9,39.9,30.22,NE,45,6.9,12.8,57,0.00,,,0.00,WUHU216HW,2013-01-19 19:11:00,
2013-01-19 11:16:00,55.1,39.6,30.21,NE,45,9.6,10.1,56,0.00,,,0.00,WUHU216HW,2013-01-19 19:16:00,
2013-01-19 11:22:00,55.4,39.4,30.21,NE,45,6.5,11.0,55,0.00,,,0.00,WUHU216HW,2013-01-19 19:22:00,
2013-01-19 11:27:00,55.6,39.6,30.21,NNE,23,12.1,12.1,55,0.00,,,0.00,WUHU216HW,2013-01-19 19:27:00,
2013-01-19 11:32:00,55.8,39.8,30.21,NNE,23,9.2,12.1,55,0.00,,,0.00,WUHU216HW,2013-01-19 19:32:00,
2013-01-19 11:37:00,55.8,39.8,30.20,NE,45,8.3,13.2,55,0.00,,,0.00,WUHU216HW,2013-01-19 19:37:00,
2013-01-19 11:43:00,55.8,39.8,30.20,NNE,23,11.4,13.2,55,0.00,,,0.00,WUHU216HW,2013-01-19 19:43:00,
2013-01-19 11:48:00,55.8,39.8,30.20,North,0,8.3,12.3,55,0.00,,,0.00,WUHU216HW,2013-01-19 19:48:00,
2013-01-19 11:53:00,56.0,40.0,30.20,North,0,11.0,12.5,55,0.00,,,0.00,WUHU216HW,2013-01-19 19:53:00,
2013-01-19 11:58:00,55.8,40.2,30.20,North,0,7.2,12.5,56,0.00,,,0.00,WUHU216HW,2013-01-19 19:58:00,
2013-01-19 12:03:00,56.0,40.0,30.20,NNE,23,12.3,13.9,55,0.00,,,0.00,WUHU216HW,2013-01-19 20:03:00,
2013-01-19 12:08:00,56.0,39.5,30.20,NE,45,7.2,13.9,54,0.00,,,0.00,WUHU216HW,2013-01-19 20:08:00,
2013-01-19 12:13:00,56.2,40.1,30.19,NE,45,9.2,10.3,55,0.00,,,0.00,WUHU216HW,2013-01-19 20:13:00,
2013-01-19 12:19:00,56.0,39.5,30.20,NE,45,11.0,11.9,54,0.00,,,0.00,WUHU216HW,2013-01-19 20:19:00,
2013-01-19 12:24:00,56.0,39.5,30.19,NE,45,11.4,11.9,54,0.00,,,0.00,WUHU216HW,2013-01-19 20:24:00,
2013-01-19 12:29:00,56.0,40.0,30.19,ESE,113,8.5,11.4,55,0.00,,,0.00,WUHU216HW,2013-01-19 20:29:00,
2013-01-19 12:34:00,56.2,39.7,30.19,NE,45,6.7,9.8,54,0.00,,,0.00,WUHU216HW,2013-01-19 20:34:00,
2013-01-19 12:39:00,56.3,39.9,30.18,ENE,68,8.7,9.4,54,0.00,,,0.00,WUHU216HW,2013-01-19 20:39:00,
2013-01-19 12:44:00,56.3,39.9,30.18,ENE,68,12.5,12.5,54,0.00,,,0.00,WUHU216HW,2013-01-19 20:44:00,
2013-01-19 12:49:00,56.3,40.3,30.18,ESE,113,6.5,16.3,55,0.00,,,0.00,WUHU216HW,2013-01-19 20:49:00,
2013-01-19 12:55:00,56.7,40.2,30.18,ENE,68,9.4,11.0,54,0.00,,,0.00,WUHU216HW,2013-01-19 20:55:00,
2013-01-19 13:00:00,56.5,40.5,30.17,ENE,68,9.2,11.6,55,0.00,,,0.00,WUHU216HW,2013-01-19 21:00:00,
2013-01-19 13:05:00,56.7,40.2,30.17,ENE,68,10.5,11.6,54,0.00,,,0.00,WUHU216HW,2013-01-19 21:05:00,
2013-01-19 13:10:00,56.7,40.7,30.17,NNE,23,9.8,11.0,55,0.00,,,0.00,WUHU216HW,2013-01-19 21:10:00,
2013-01-19 13:15:00,56.9,40.4,30.17,NNE,23,11.4,11.4,54,0.00,,,0.00,WUHU216HW,2013-01-19 21:15:00,
2013-01-19 13:20:00,56.9,40.4,30.17,NE,45,8.7,11.4,54,0.00,,,0.00,WUHU216HW,2013-01-19 21:20:00,
2013-01-19 13:25:00,56.9,40.4,30.17,ENE,68,9.8,9.8,54,0.00,,,0.00,WUHU216HW,2013-01-19 21:25:00,
2013-01-19 13:30:00,56.9,40.4,30.17,NNE,23,10.1,10.1,54,0.00,,,0.00,WUHU216HW,2013-01-19 21:30:00,
2013-01-19 13:35:00,56.9,40.4,30.17,ENE,68,6.9,10.1,54,0.00,,,0.00,WUHU216HW,2013-01-19 21:35:00,
2013-01-19 13:40:00,56.9,40.4,30.17,North,0,7.4,12.1,54,0.00,,,0.00,WUHU216HW,2013-01-19 21:40:00,
2013-01-19 13:47:00,56.7,40.2,30.17,NE,45,10.5,12.1,54,0.00,,,0.00,WUHU216HW,2013-01-19 21:47:00,
2013-01-19 13:52:00,56.7,40.7,30.17,NNE,23,7.6,12.5,55,0.00,,,0.00,WUHU216HW,2013-01-19 21:52:00,
2013-01-19 13:58:00,56.9,40.4,30.16,ENE,68,10.5,12.5,54,0.00,,,0.00,WUHU216HW,2013-01-19 21:58:00,
2013-01-19 14:03:00,56.7,40.2,30.17,NNE,23,10.1,11.0,54,0.00,,,0.00,WUHU216HW,2013-01-19 22:03:00,
2013-01-19 14:08:00,56.9,40.4,30.16,NE,45,5.1,11.0,54,0.00,,,0.00,WUHU216HW,2013-01-19 22:08:00,
2013-01-19 14:13:00,56.9,40.4,30.16,ENE,68,11.4,11.4,54,0.00,,,0.00,WUHU216HW,2013-01-19 22:13:00,
2013-01-19 14:18:00,56.9,40.4,30.16,NNE,23,12.1,12.1,54,0.00,,,0.00,WUHU216HW,2013-01-19 22:18:00,
2013-01-19 14:24:00,56.9,40.4,30.16,NNE,23,9.8,12.1,54,0.00,,,0.00,WUHU216HW,2013-01-19 22:24:00,
2013-01-19 14:28:00,56.9,40.4,30.16,North,0,6.9,12.1,54,0.00,,,0.00,WUHU216HW,2013-01-19 22:28:00,
2013-01-19 14:33:00,56.9,40.4,30.16,NE,45,7.8,11.6,54,0.00,,,0.00,WUHU216HW,2013-01-19 22:33:00,
2013-01-19 14:38:00,56.9,40.0,30.16,ENE,68,7.6,12.1,53,0.00,,,0.00,WUHU216HW,2013-01-19 22:38:00,
2013-01-19 14:44:00,56.9,40.0,30.16,NE,45,9.8,12.1,53,0.00,,,0.00,WUHU216HW,2013-01-19 22:44:00,
2013-01-19 14:49:00,56.9,40.4,30.16,NE,45,11.6,13.4,54,0.00,,,0.00,WUHU216HW,2013-01-19 22:49:00,
2013-01-19 14:54:00,56.7,40.2,30.16,North,0,7.6,13.4,54,0.00,,,0.00,WUHU216HW,2013-01-19 22:54:00,
2013-01-19 14:59:00,56.7,40.2,30.16,NE,45,9.2,11.6,54,0.00,,,0.00,WUHU216HW,2013-01-19 22:59:00,
2013-01-19 15:04:00,56.7,40.2,30.15,NNE,23,8.3,11.4,54,0.00,,,0.00,WUHU216HW,2013-01-19 23:04:00,
2013-01-19 15:09:00,56.5,40.1,30.16,NE,45,7.8,9.2,54,0.00,,,0.00,WUHU216HW,2013-01-19 23:09:00,
2013-01-19 15:14:00,56.5,40.1,30.16,NNE,23,8.3,8.3,54,0.00,,,0.00,WUHU216HW,2013-01-19 23:14:00,
2013-01-19 15:19:00,56.7,40.2,30.16,NE,45,7.6,8.3,54,0.00,,,0.00,WUHU216HW,2013-01-19 23:19:00,
2013-01-19 15:24:00,56.7,40.2,30.15,NNE,23,5.6,8.3,54,0.00,,,0.00,WUHU216HW,2013-01-19 23:24:00,
2013-01-19 15:30:00,56.5,39.6,30.16,NNE,23,9.2,9.2,53,0.00,,,0.00,WUHU216HW,2013-01-19 23:30:00,
2013-01-19 15:35:00,56.5,39.6,30.16,NNE,23,10.1,10.1,53,0.00,,,0.00,WUHU216HW,2013-01-19 23:35:00,
2013-01-19 15:40:00,56.5,39.6,30.16,NNE,23,6.9,12.1,53,0.00,,,0.00,WUHU216HW,2013-01-19 23:40:00,
2013-01-19 15:45:00,56.5,39.6,30.15,ENE,68,7.2,12.1,53,0.00,,,0.00,WUHU216HW,2013-01-19 23:45:00,
2013-01-19 15:50:00,56.3,39.4,30.15,NE,45,5.1,9.2,53,0.00,,,0.00,WUHU216HW,2013-01-19 23:50:00,
2013-01-19 15:55:00,56.3,39.4,30.15,North,0,6.0,9.2,53,0.00,,,0.00,WUHU216HW,2013-01-19 23:55:00,
2013-01-19 16:01:00,56.2,39.3,30.16,ENE,68,4.7,6.9,53,0.00,,,0.00,WUHU216HW,2013-01-20 00:01:00,
2013-01-19 16:06:00,56.2,38.7,30.16,ENE,68,4.7,6.0,52,0.00,,,0.00,WUHU216HW,2013-01-20 00:06:00,
2013-01-19 16:11:00,56.0,38.5,30.15,ENE,68,4.7,6.9,52,0.00,,,0.00,WUHU216HW,2013-01-20 00:11:00,
2013-01-19 16:16:00,55.8,37.9,30.16,NE,45,5.1,6.9,51,0.00,,,0.00,WUHU216HW,2013-01-20 00:16:00,
2013-01-19 16:22:00,55.6,37.7,30.16,NE,45,6.7,8.5,51,0.00,,,0.00,WUHU216HW,2013-01-20 00:22:00,
2013-01-19 16:27:00,55.4,38.0,30.16,NE,45,5.4,8.5,52,0.00,,,0.00,WUHU216HW,2013-01-20 00:27:00,
2013-01-19 16:32:00,55.3,37.9,30.16,NNE,23,6.0,7.6,52,0.00,,,0.00,WUHU216HW,2013-01-20 00:32:00,
2013-01-19 16:37:00,55.1,38.2,30.16,NE,45,4.3,7.6,53,0.00,,,0.00,WUHU216HW,2013-01-20 00:37:00,
2013-01-19 16:43:00,54.9,38.4,30.16,ENE,68,5.1,8.1,54,0.00,,,0.00,WUHU216HW,2013-01-20 00:43:00,
2013-01-19 16:48:00,54.5,38.6,30.16,ENE,68,5.4,8.1,55,0.00,,,0.00,WUHU216HW,2013-01-20 00:48:00,
2013-01-19 16:53:00,54.4,38.9,30.16,NE,45,3.6,5.4,56,0.00,,,0.00,WUHU216HW,2013-01-20 00:53:00,
2013-01-19 16:58:00,54.0,38.6,30.15,NE,45,4.9,4.9,56,0.00,,,0.00,WUHU216HW,2013-01-20 00:58:00,
2013-01-19 17:03:00,53.6,38.3,30.15,ENE,68,4.0,4.9,56,0.00,,,0.00,WUHU216HW,2013-01-20 01:03:00,
2013-01-19 17:08:00,53.3,37.9,30.15,ENE,68,4.0,4.0,56,0.00,,,0.00,WUHU216HW,2013-01-20 01:08:00,
2013-01-19 17:13:00,52.9,38.1,30.15,NE,45,2.7,4.0,57,0.00,,,0.00,WUHU216HW,2013-01-20 01:13:00,
2013-01-19 17:18:00,52.6,37.7,30.16,East,90,2.5,4.0,57,0.00,,,0.00,WUHU216HW,2013-01-20 01:18:00,
2013-01-19 17:23:00,52.0,37.6,30.16,East,90,1.6,2.7,58,0.00,,,0.00,WUHU216HW,2013-01-20 01:23:00,
2013-01-19 17:28:00,51.5,37.1,30.16,East,90,1.3,2.7,58,0.00,,,0.00,WUHU216HW,2013-01-20 01:28:00,
2013-01-19 17:33:00,51.1,36.8,30.16,ENE,68,2.2,2.5,58,0.00,,,0.00,WUHU216HW,2013-01-20 01:33:00,
2013-01-19 17:38:00,50.4,36.6,30.16,ESE,113,2.5,2.5,59,0.00,,,0.00,WUHU216HW,2013-01-20 01:38:00,
2013-01-19 17:43:00,50.0,36.3,30.16,East,90,2.5,2.9,59,0.00,,,0.00,WUHU216HW,2013-01-20 01:43:00,
2013-01-19 17:49:00,49.5,36.3,30.16,ENE,68,1.8,2.9,60,0.00,,,0.00,WUHU216HW,2013-01-20 01:49:00,
2013-01-19 17:54:00,49.1,35.9,30.16,ENE,68,1.8,2.5,60,0.00,,,0.00,WUHU216HW,2013-01-20 01:54:00,
2013-01-19 18:00:00,48.8,36.0,30.16,ENE,68,2.7,3.4,61,0.00,,,0.00,WUHU216HW,2013-01-20 02:00:00,
2013-01-19 18:05:00,48.6,36.2,30.16,ENE,68,2.2,3.4,62,0.00,,,0.00,WUHU216HW,2013-01-20 02:05:00,
2013-01-19 18:10:00,48.2,36.3,30.16,ESE,113,1.3,2.5,63,0.00,,,0.00,WUHU216HW,2013-01-20 02:10:00,
2013-01-19 18:15:00,48.1,35.6,30.16,ESE,113,2.5,2.5,62,0.00,,,0.00,WUHU216HW,2013-01-20 02:15:00,
2013-01-19 18:20:00,47.5,35.2,30.16,SE,135,1.6,2.5,62,0.00,,,0.00,WUHU216HW,2013-01-20 02:20:00,
2013-01-19 18:25:00,47.0,34.7,30.17,SE,135,1.6,2.5,62,0.00,,,0.00,WUHU216HW,2013-01-20 02:25:00,
2013-01-19 18:30:00,46.4,34.1,30.17,SE,135,0.0,2.0,62,0.00,,,0.00,WUHU216HW,2013-01-20 02:30:00,
2013-01-19 18:35:00,45.9,33.6,30.17,SE,135,0.0,1.8,62,0.00,,,0.00,WUHU216HW,2013-01-20 02:35:00,
2013-01-19 18:40:00,45.7,33.4,30.17,ESE,113,1.6,1.6,62,0.00,,,0.00,WUHU216HW,2013-01-20 02:40:00,
2013-01-19 18:45:00,45.0,33.1,30.17,SE,135,0.7,1.8,63,0.00,,,0.00,WUHU216HW,2013-01-20 02:45:00,
2013-01-19 18:51:00,44.6,32.9,30.17,SE,135,0.4,1.8,63,0.00,,,0.00,WUHU216HW,2013-01-20 02:51:00,
2013-01-19 18:56:00,44.5,32.7,30.17,SE,135,1.1,1.1,63,0.00,,,0.00,WUHU216HW,2013-01-20 02:56:00,
2013-01-19 19:02:00,43.9,33.3,30.17,SE,135,0.7,1.1,66,0.00,,,0.00,WUHU216HW,2013-01-20 03:02:00,
2013-01-19 19:07:00,43.6,33.3,30.17,East,90,1.6,1.6,67,0.00,,,0.00,WUHU216HW,2013-01-20 03:07:00,
2013-01-19 19:12:00,43.2,33.0,30.17,ESE,113,1.3,1.8,67,0.00,,,0.00,WUHU216HW,2013-01-20 03:12:00,
2013-01-19 19:17:00,42.8,32.7,30.17,ESE,113,2.5,3.4,67,0.00,,,0.00,WUHU216HW,2013-01-20 03:17:00,
2013-01-19 19:22:00,42.5,32.7,30.17,SE,135,2.5,3.4,68,0.00,,,0.00,WUHU216HW,2013-01-20 03:22:00,
2013-01-19 19:27:00,42.1,32.8,30.17,SE,135,2.5,4.0,69,0.00,,,0.00,WUHU216HW,2013-01-20 03:27:00,
2013-01-19 19:33:00,41.8,32.4,30.17,SE,135,2.7,4.0,69,0.00,,,0.00,WUHU216HW,2013-01-20 03:33:00,
2013-01-19 19:38:00,41.6,32.2,30.17,SE,135,2.7,3.6,69,0.00,,,0.00,WUHU216HW,2013-01-20 03:38:00,
2013-01-19 19:43:00,41.4,32.4,30.17,SE,135,1.8,3.1,70,0.00,,,0.00,WUHU216HW,2013-01-20 03:43:00,
2013-01-19 19:48:00,41.2,32.6,30.17,SE,135,1.6,2.7,71,0.00,,,0.00,WUHU216HW,2013-01-20 03:48:00,
2013-01-19 19:53:00,41.2,32.6,30.18,SE,135,2.2,3.4,71,0.00,,,0.00,WUHU216HW,2013-01-20 03:53:00,
2013-01-19 19:58:00,41.0,32.4,30.18,ESE,113,1.8,3.4,71,0.00,,,0.00,WUHU216HW,2013-01-20 03:58:00,
2013-01-19 20:03:00,40.9,32.2,30.18,SE,135,0.7,2.5,71,0.00,,,0.00,WUHU216HW,2013-01-20 04:03:00,
2013-01-19 20:08:00,40.7,32.3,30.18,ESE,113,1.1,2.5,72,0.00,,,0.00,WUHU216HW,2013-01-20 04:08:00,
2013-01-19 20:13:00,40.7,32.7,30.18,East,90,1.1,1.8,73,0.00,,,0.00,WUHU216HW,2013-01-20 04:13:00,
2013-01-19 20:19:00,40.7,32.7,30.18,East,90,0.9,1.6,73,0.00,,,0.00,WUHU216HW,2013-01-20 04:19:00,
2013-01-19 20:24:00,40.7,32.7,30.17,ESE,113,2.2,2.5,73,0.00,,,0.00,WUHU216HW,2013-01-20 04:24:00,
2013-01-19 20:29:00,40.5,32.9,30.17,ESE,113,1.3,2.5,74,0.00,,,0.00,WUHU216HW,2013-01-20 04:29:00,
2013-01-19 20:34:00,40.3,32.3,30.18,SE,135,1.1,1.8,73,0.00,,,0.00,WUHU216HW,2013-01-20 04:34:00,
2013-01-19 20:39:00,40.3,32.3,30.18,SE,135,0.9,1.1,73,0.00,,,0.00,WUHU216HW,2013-01-20 04:39:00,
2013-01-19 20:44:00,40.1,32.1,30.18,SE,135,1.1,1.1,73,0.00,,,0.00,WUHU216HW,2013-01-20 04:44:00,
2013-01-19 20:49:00,40.0,32.0,30.19,SE,135,1.1,1.1,73,0.00,,,0.00,WUHU216HW,2013-01-20 04:49:00,
2013-01-19 20:54:00,39.8,31.8,30.19,SE,135,1.8,2.5,73,0.00,,,0.00,WUHU216HW,2013-01-20 04:54:00,
2013-01-19 21:00:00,39.8,31.8,30.20,SE,135,1.1,2.5,73,0.00,,,0.00,WUHU216HW,2013-01-20 05:00:00,
2013-01-19 21:01:00,39.6,31.6,30.20,ESE,113,1.8,2.5,73,0.00,,,0.00,WUHU216HW,2013-01-20 05:01:00,
2013-01-19 21:02:00,39.6,31.6,30.20,SE,135,1.8,1.8,73,0.00,,,0.00,WUHU216HW,2013-01-20 05:02:00,
2013-01-19 21:03:00,39.6,31.6,30.20,SE,135,2.0,2.0,73,0.00,,,0.00,WUHU216HW,2013-01-20 05:03:00,
2013-01-19 21:08:00,39.4,31.4,30.20,ESE,113,2.2,2.2,73,0.00,,,0.00,WUHU216HW,2013-01-20 05:08:00,
2013-01-19 21:13:00,39.4,31.4,30.20,SE,135,2.0,2.5,73,0.00,,,0.00,WUHU216HW,2013-01-20 05:13:00,
2013-01-19 21:18:00,39.4,31.8,30.20,SSE,158,1.1,2.5,74,0.00,,,0.00,WUHU216HW,2013-01-20 05:18:00,
2013-01-19 21:23:00,39.4,31.8,30.20,SE,135,0.9,1.8,74,0.00,,,0.00,WUHU216HW,2013-01-20 05:23:00,
2013-01-19 21:28:00,39.4,31.8,30.20,SE,135,0.4,1.3,74,0.00,,,0.00,WUHU216HW,2013-01-20 05:28:00,
2013-01-19 21:33:00,39.4,31.4,30.20,SE,135,0.4,1.3,73,0.00,,,0.00,WUHU216HW,2013-01-20 05:33:00,
2013-01-19 21:38:00,39.2,31.2,30.20,SSE,158,1.8,1.8,73,0.00,,,0.00,WUHU216HW,2013-01-20 05:38:00,
2013-01-19 21:43:00,39.1,31.2,30.20,SSE,158,0.9,1.8,73,0.00,,,0.00,WUHU216HW,2013-01-20 05:43:00,
2013-01-19 21:48:00,38.9,31.0,30.20,SSE,158,1.3,1.3,73,0.00,,,0.00,WUHU216HW,2013-01-20 05:48:00,
2013-01-19 21:53:00,38.5,30.6,30.20,SSE,158,1.8,1.8,73,0.00,,,0.00,WUHU216HW,2013-01-20 05:53:00,
2013-01-19 21:58:00,38.5,30.6,30.20,SSE,158,1.1,2.5,73,0.00,,,0.00,WUHU216HW,2013-01-20 05:58:00,
2013-01-19 22:03:00,38.5,30.6,30.21,SSE,158,1.6,2.5,73,0.00,,,0.00,WUHU216HW,2013-01-20 06:03:00,
2013-01-19 22:08:00,38.5,30.6,30.21,SE,135,0.9,1.6,73,0.00,,,0.00,WUHU216HW,2013-01-20 06:08:00,
2013-01-19 22:13:00,38.5,30.6,30.20,SE,135,0.0,1.1,73,0.00,,,0.00,WUHU216HW,2013-01-20 06:13:00,
2013-01-19 22:18:00,38.3,30.4,30.21,SSE,158,0.9,1.1,73,0.00,,,0.00,WUHU216HW,2013-01-20 06:18:00,
2013-01-19 22:23:00,38.3,30.4,30.21,SSE,158,0.0,1.1,73,0.00,,,0.00,WUHU216HW,2013-01-20 06:23:00,
2013-01-19 22:28:00,38.2,30.2,30.21,ESE,113,0.2,0.9,73,0.00,,,0.00,WUHU216HW,2013-01-20 06:28:00,
2013-01-19 22:33:00,38.0,30.4,30.21,ESE,113,0.4,0.7,74,0.00,,,0.00,WUHU216HW,2013-01-20 06:33:00,
2013-01-19 22:38:00,37.8,30.0,30.21,ESE,113,0.0,0.7,73,0.00,,,0.00,WUHU216HW,2013-01-20 06:38:00,
2013-01-19 22:43:00,37.6,29.8,30.21,East,90,1.1,1.3,73,0.00,,,0.00,WUHU216HW,2013-01-20 06:43:00,
2013-01-19 22:48:00,37.4,29.6,30.21,ESE,113,1.1,2.0,73,0.00,,,0.00,WUHU216HW,2013-01-20 06:48:00,
2013-01-19 22:53:00,37.3,29.4,30.21,ESE,113,0.7,2.0,73,0.00,,,0.00,WUHU216HW,2013-01-20 06:53:00,
2013-01-19 22:58:00,37.1,29.3,30.21,ESE,113,1.3,1.3,73,0.00,,,0.00,WUHU216HW,2013-01-20 06:58:00,
2013-01-19 23:03:00,36.9,29.1,30.21,ESE,113,0.7,1.3,73,0.00,,,0.00,WUHU216HW,2013-01-20 07:03:00,
2013-01-19 23:08:00,36.7,29.2,30.21,SE,135,0.4,1.8,74,0.00,,,0.00,WUHU216HW,2013-01-20 07:08:00,
2013-01-19 23:13:00,36.5,29.0,30.22,SE,135,1.1,1.8,74,0.00,,,0.00,WUHU216HW,2013-01-20 07:13:00,
2013-01-19 23:18:00,36.4,28.5,30.21,SE,135,0.4,1.1,73,0.00,,,0.00,WUHU216HW,2013-01-20 07:18:00,
2013-01-19 23:23:00,36.2,28.4,30.22,SE,135,0.0,1.1,73,0.00,,,0.00,WUHU216HW,2013-01-20 07:23:00,
2013-01-19 23:28:00,36.2,28.4,30.21,SE,135,0.0,0.7,73,0.00,,,0.00,WUHU216HW,2013-01-20 07:28:00,
2013-01-19 23:33:00,36.0,28.2,30.21,SE,135,0.0,0.7,73,0.00,,,0.00,WUHU216HW,2013-01-20 07:33:00,
2013-01-19 23:38:00,36.0,28.2,30.21,ESE,113,1.3,1.3,73,0.00,,,0.00,WUHU216HW,2013-01-20 07:38:00,
2013-01-19 23:43:00,35.6,27.8,30.21,ESE,113,1.3,1.3,73,0.00,,,0.00,WUHU216HW,2013-01-20 07:43:00,
2013-01-19 23:48:00,35.6,27.8,30.21,SE,135,0.7,1.3,73,0.00,,,0.00,WUHU216HW,2013-01-20 07:48:00,
2013-01-19 23:53:00,35.5,27.6,30.21,SE,135,0.0,1.1,73,0.00,,,0.00,WUHU216HW,2013-01-20 07:53:00,
2013-01-19 23:58:00,35.3,27.5,30.21,SE,135,0.0,1.1,73,0.00,,,0.00,WUHU216HW,2013-01-20 07:58:00,